sensor_id;sensor_type;location;lat;lon;timestamp;P1;durP1;ratioP1;P2;durP2;ratioP2
75356;SDS011;63946;51.986;5.930;2023-07-31T06:39:07;4.93;;;2.88;;
75356;SDS011;63946;51.986;5.930;2023-07-31T06:41:36;8.30;;;3.25;;
75356;SDS011;63946;51.986;5.930;2023-07-31T06:44:10;6.38;;;2.90;;
75356;SDS011;63946;51.986;5.930;2023-07-31T06:46:40;5.55;;;3.08;;
75356;SDS011;63946;51.986;5.930;2023-07-31T06:49:09;7.50;;;3.03;;
75356;SDS011;63946;51.986;5.930;2023-07-31T06:51:40;6.03;;;2.63;;
75356;SDS011;63946;51.986;5.930;2023-07-31T06:54:10;8.63;;;3.78;;
75356;SDS011;63946;51.986;5.930;2023-07-31T06:56:40;5.90;;;2.67;;
75356;SDS011;63946;51.986;5.930;2023-07-31T06:59:08;6.35;;;3.03;;
75356;SDS011;63946;51.986;5.930;2023-07-31T07:01:37;5.80;;;3.05;;
75356;SDS011;63946;51.986;5.930;2023-07-31T07:04:06;4.32;;;2.28;;
75356;SDS011;63946;51.986;5.930;2023-07-31T07:06:35;5.32;;;2.85;;
75356;SDS011;63946;51.986;5.930;2023-07-31T07:09:06;7.05;;;2.90;;
75356;SDS011;63946;51.986;5.930;2023-07-31T07:11:39;2.53;;;1.50;;
75356;SDS011;63946;51.986;5.930;2023-07-31T07:14:08;4.60;;;2.22;;
75356;SDS011;63946;51.986;5.930;2023-07-31T07:16:37;4.35;;;2.20;;
75356;SDS011;63946;51.986;5.930;2023-07-31T07:19:06;2.95;;;1.83;;
75356;SDS011;63946;51.986;5.930;2023-07-31T07:21:35;3.40;;;1.98;;
75356;SDS011;63946;51.986;5.930;2023-07-31T07:24:04;3.38;;;1.67;;
75356;SDS011;63946;51.986;5.930;2023-07-31T07:26:32;3.50;;;1.63;;
75356;SDS011;63946;51.986;5.930;2023-07-31T07:29:01;3.55;;;1.50;;
75356;SDS011;63946;51.986;5.930;2023-07-31T07:31:33;2.60;;;1.45;;
75356;SDS011;63946;51.986;5.930;2023-07-31T07:34:02;2.65;;;1.17;;
75356;SDS011;63946;51.986;5.930;2023-07-31T07:36:31;2.60;;;1.52;;
75356;SDS011;63946;51.986;5.930;2023-07-31T07:39:00;2.83;;;1.30;;
75356;SDS011;63946;51.986;5.930;2023-07-31T07:41:33;2.72;;;1.20;;
75356;SDS011;63946;51.986;5.930;2023-07-31T07:44:02;2.60;;;1.08;;
75356;SDS011;63946;51.986;5.930;2023-07-31T07:46:31;1.98;;;1.20;;
75356;SDS011;63946;51.986;5.930;2023-07-31T07:49:00;1.45;;;1.05;;
75356;SDS011;63946;51.986;5.930;2023-07-31T07:51:29;1.70;;;1.00;;
75356;SDS011;63946;51.986;5.930;2023-07-31T07:53:58;2.15;;;1.13;;
75356;SDS011;63946;51.986;5.930;2023-07-31T07:56:27;1.25;;;0.85;;
75356;SDS011;63946;51.986;5.930;2023-07-31T07:58:58;1.33;;;1.00;;
75356;SDS011;63946;51.986;5.930;2023-07-31T08:01:27;2.38;;;1.20;;
75356;SDS011;63946;51.986;5.930;2023-07-31T08:03:56;2.17;;;0.90;;
75356;SDS011;63946;51.986;5.930;2023-07-31T08:06:24;2.42;;;1.08;;
75356;SDS011;63946;51.986;5.930;2023-07-31T08:08:55;2.00;;;0.90;;
75356;SDS011;63946;51.986;5.930;2023-07-31T08:11:24;1.58;;;1.05;;
75356;SDS011;63946;51.986;5.930;2023-07-31T08:13:53;2.10;;;1.38;;
75356;SDS011;63946;51.986;5.930;2023-07-31T08:16:21;1.92;;;0.93;;
75356;SDS011;63946;51.986;5.930;2023-07-31T08:18:50;2.30;;;1.10;;
75356;SDS011;63946;51.986;5.930;2023-07-31T08:21:19;1.60;;;1.10;;
75356;SDS011;63946;51.986;5.930;2023-07-31T08:23:48;1.30;;;1.10;;
75356;SDS011;63946;51.986;5.930;2023-07-31T08:26:17;1.88;;;1.40;;
75356;SDS011;63946;51.986;5.930;2023-07-31T08:28:47;1.75;;;1.20;;
75356;SDS011;63946;51.986;5.930;2023-07-31T08:31:15;1.90;;;1.27;;
75356;SDS011;63946;51.986;5.930;2023-07-31T08:33:44;1.98;;;1.40;;
75356;SDS011;63946;51.986;5.930;2023-07-31T08:36:13;2.35;;;1.20;;
75356;SDS011;63946;51.986;5.930;2023-07-31T08:38:42;2.83;;;1.40;;
75356;SDS011;63946;51.986;5.930;2023-07-31T08:41:26;1.52;;;1.27;;
75356;SDS011;63946;51.986;5.930;2023-07-31T08:44:12;2.03;;;1.52;;
75356;SDS011;63946;51.986;5.930;2023-07-31T08:46:43;2.15;;;1.48;;
75356;SDS011;63946;51.986;5.930;2023-07-31T08:49:13;2.25;;;1.42;;
75356;SDS011;63946;51.986;5.930;2023-07-31T08:51:42;3.00;;;1.80;;
75356;SDS011;63946;51.986;5.930;2023-07-31T08:56:41;2.15;;;1.60;;
75356;SDS011;63946;51.986;5.930;2023-07-31T08:59:11;2.40;;;2.00;;
75356;SDS011;63946;51.986;5.930;2023-07-31T09:01:43;3.17;;;1.73;;
75356;SDS011;63946;51.986;5.930;2023-07-31T09:04:18;2.17;;;1.50;;
75356;SDS011;63946;51.986;5.930;2023-07-31T09:06:48;2.17;;;1.65;;
75356;SDS011;63946;51.986;5.930;2023-07-31T09:09:18;3.00;;;1.63;;
75356;SDS011;63946;51.986;5.930;2023-07-31T09:11:49;3.75;;;1.50;;
75356;SDS011;63946;51.986;5.930;2023-07-31T09:14:20;2.75;;;1.67;;
75356;SDS011;63946;51.986;5.930;2023-07-31T09:16:53;2.30;;;1.80;;
75356;SDS011;63946;51.986;5.930;2023-07-31T09:19:25;2.95;;;1.55;;
75356;SDS011;63946;51.986;5.930;2023-07-31T09:21:57;3.47;;;2.25;;
75356;SDS011;63946;51.986;5.930;2023-07-31T09:24:29;2.20;;;1.92;;
75356;SDS011;63946;51.986;5.930;2023-07-31T09:27:00;2.60;;;2.25;;
75356;SDS011;63946;51.986;5.930;2023-07-31T09:29:29;2.70;;;1.90;;
75356;SDS011;63946;51.986;5.930;2023-07-31T09:31:58;3.50;;;2.38;;
75356;SDS011;63946;51.986;5.930;2023-07-31T09:34:36;2.97;;;2.67;;
75356;SDS011;63946;51.986;5.930;2023-07-31T09:37:06;3.03;;;2.22;;
75356;SDS011;63946;51.986;5.930;2023-07-31T09:39:45;3.40;;;2.60;;
75356;SDS011;63946;51.986;5.930;2023-07-31T09:42:24;3.92;;;2.45;;
75356;SDS011;63946;51.986;5.930;2023-07-31T09:45:06;3.70;;;3.20;;
75356;SDS011;63946;51.986;5.930;2023-07-31T09:47:36;4.72;;;3.22;;
75356;SDS011;63946;51.986;5.930;2023-07-31T09:50:08;3.78;;;2.92;;
75356;SDS011;63946;51.986;5.930;2023-07-31T09:52:38;4.18;;;3.22;;
75356;SDS011;63946;51.986;5.930;2023-07-31T09:55:09;7.60;;;3.40;;
75356;SDS011;63946;51.986;5.930;2023-07-31T09:57:44;5.00;;;4.10;;
75356;SDS011;63946;51.986;5.930;2023-07-31T10:00:18;4.90;;;3.60;;
75356;SDS011;63946;51.986;5.930;2023-07-31T10:02:50;4.88;;;4.30;;
75356;SDS011;63946;51.986;5.930;2023-07-31T10:05:20;5.85;;;3.78;;
75356;SDS011;63946;51.986;5.930;2023-07-31T10:07:51;5.60;;;3.50;;
75356;SDS011;63946;51.986;5.930;2023-07-31T10:10:22;5.80;;;3.95;;
75356;SDS011;63946;51.986;5.930;2023-07-31T10:12:53;6.78;;;4.07;;
75356;SDS011;63946;51.986;5.930;2023-07-31T10:15:26;6.55;;;4.05;;
75356;SDS011;63946;51.986;5.930;2023-07-31T10:17:57;6.07;;;4.32;;
75356;SDS011;63946;51.986;5.930;2023-07-31T10:20:29;7.93;;;5.05;;
75356;SDS011;63946;51.986;5.930;2023-07-31T10:22:58;5.03;;;3.75;;
75356;SDS011;63946;51.986;5.930;2023-07-31T10:25:28;6.07;;;5.10;;
75356;SDS011;63946;51.986;5.930;2023-07-31T10:27:57;8.45;;;5.88;;
75356;SDS011;63946;51.986;5.930;2023-07-31T10:30:29;6.35;;;4.43;;
75356;SDS011;63946;51.986;5.930;2023-07-31T10:33:03;6.07;;;4.50;;
75356;SDS011;63946;51.986;5.930;2023-07-31T10:35:34;5.68;;;4.75;;
75356;SDS011;63946;51.986;5.930;2023-07-31T10:38:09;7.35;;;4.95;;
75356;SDS011;63946;51.986;5.930;2023-07-31T10:40:40;6.75;;;5.43;;
75356;SDS011;63946;51.986;5.930;2023-07-31T10:43:23;9.90;;;5.60;;
75356;SDS011;63946;51.986;5.930;2023-07-31T10:45:53;6.70;;;4.80;;
75356;SDS011;63946;51.986;5.930;2023-07-31T10:48:25;7.28;;;5.35;;
75356;SDS011;63946;51.986;5.930;2023-07-31T10:51:06;8.35;;;5.57;;
75356;SDS011;63946;51.986;5.930;2023-07-31T10:53:41;8.45;;;5.72;;
75356;SDS011;63946;51.986;5.930;2023-07-31T10:56:10;8.35;;;5.25;;
75356;SDS011;63946;51.986;5.930;2023-07-31T10:58:44;6.95;;;5.03;;
75356;SDS011;63946;51.986;5.930;2023-07-31T11:01:14;8.55;;;4.60;;
75356;SDS011;63946;51.986;5.930;2023-07-31T11:03:46;5.70;;;4.85;;
75356;SDS011;63946;51.986;5.930;2023-07-31T11:06:18;6.93;;;5.00;;
75356;SDS011;63946;51.986;5.930;2023-07-31T11:08:48;6.85;;;5.45;;
75356;SDS011;63946;51.986;5.930;2023-07-31T11:11:19;6.65;;;4.50;;
75356;SDS011;63946;51.986;5.930;2023-07-31T11:13:50;8.63;;;5.00;;
75356;SDS011;63946;51.986;5.930;2023-07-31T11:16:21;6.18;;;4.75;;
75356;SDS011;63946;51.986;5.930;2023-07-31T11:18:54;7.03;;;4.75;;
75356;SDS011;63946;51.986;5.930;2023-07-31T11:21:23;7.82;;;5.15;;
75356;SDS011;63946;51.986;5.930;2023-07-31T11:26:25;9.82;;;5.47;;
75356;SDS011;63946;51.986;5.930;2023-07-31T11:28:54;7.80;;;5.70;;
75356;SDS011;63946;51.986;5.930;2023-07-31T11:31:23;7.13;;;4.82;;
75356;SDS011;63946;51.986;5.930;2023-07-31T11:34:03;6.55;;;4.53;;
75356;SDS011;63946;51.986;5.930;2023-07-31T11:36:33;5.65;;;4.55;;
75356;SDS011;63946;51.986;5.930;2023-07-31T11:39:05;6.70;;;4.60;;
75356;SDS011;63946;51.986;5.930;2023-07-31T11:41:35;6.90;;;4.70;;
75356;SDS011;63946;51.986;5.930;2023-07-31T11:44:04;5.20;;;3.50;;
75356;SDS011;63946;51.986;5.930;2023-07-31T11:46:38;7.88;;;4.75;;
75356;SDS011;63946;51.986;5.930;2023-07-31T11:49:07;4.88;;;3.72;;
75356;SDS011;63946;51.986;5.930;2023-07-31T11:51:39;5.78;;;4.55;;
75356;SDS011;63946;51.986;5.930;2023-07-31T11:54:08;6.65;;;4.70;;
75356;SDS011;63946;51.986;5.930;2023-07-31T11:56:38;5.90;;;4.10;;
75356;SDS011;63946;51.986;5.930;2023-07-31T11:59:07;6.78;;;4.50;;
75356;SDS011;63946;51.986;5.930;2023-07-31T12:01:37;5.30;;;4.47;;
75356;SDS011;63946;51.986;5.930;2023-07-31T12:04:11;6.35;;;4.20;;
75356;SDS011;63946;51.986;5.930;2023-07-31T12:06:57;7.80;;;4.68;;
75356;SDS011;63946;51.986;5.930;2023-07-31T12:09:28;7.47;;;4.00;;
75356;SDS011;63946;51.986;5.930;2023-07-31T12:12:01;5.82;;;4.38;;
75356;SDS011;63946;51.986;5.930;2023-07-31T12:14:32;7.80;;;4.60;;
75356;SDS011;63946;51.986;5.930;2023-07-31T12:17:04;4.75;;;3.63;;
75356;SDS011;63946;51.986;5.930;2023-07-31T12:19:33;5.28;;;3.78;;
75356;SDS011;63946;51.986;5.930;2023-07-31T12:22:10;4.93;;;2.90;;
75356;SDS011;63946;51.986;5.930;2023-07-31T12:24:46;5.10;;;4.03;;
75356;SDS011;63946;51.986;5.930;2023-07-31T12:27:15;5.30;;;4.28;;
75356;SDS011;63946;51.986;5.930;2023-07-31T12:29:50;4.85;;;3.47;;
75356;SDS011;63946;51.986;5.930;2023-07-31T12:32:22;4.50;;;3.53;;
75356;SDS011;63946;51.986;5.930;2023-07-31T12:34:54;4.20;;;3.65;;
75356;SDS011;63946;51.986;5.930;2023-07-31T12:37:28;6.43;;;3.80;;
75356;SDS011;63946;51.986;5.930;2023-07-31T12:39:57;4.38;;;3.53;;
75356;SDS011;63946;51.986;5.930;2023-07-31T12:42:32;8.82;;;3.72;;
75356;SDS011;63946;51.986;5.930;2023-07-31T12:45:01;6.65;;;4.10;;
75356;SDS011;63946;51.986;5.930;2023-07-31T12:47:31;5.55;;;4.35;;
75356;SDS011;63946;51.986;5.930;2023-07-31T12:49:59;5.85;;;4.30;;
75356;SDS011;63946;51.986;5.930;2023-07-31T12:52:28;5.60;;;3.67;;
75356;SDS011;63946;51.986;5.930;2023-07-31T12:54:57;5.75;;;3.95;;
75356;SDS011;63946;51.986;5.930;2023-07-31T12:57:26;5.88;;;4.22;;
75356;SDS011;63946;51.986;5.930;2023-07-31T12:59:54;5.65;;;4.22;;
75356;SDS011;63946;51.986;5.930;2023-07-31T13:02:23;7.10;;;4.95;;
75356;SDS011;63946;51.986;5.930;2023-07-31T13:04:53;8.23;;;4.95;;
75356;SDS011;63946;51.986;5.930;2023-07-31T13:07:22;7.25;;;4.65;;
75356;SDS011;63946;51.986;5.930;2023-07-31T13:09:54;5.68;;;4.22;;
75356;SDS011;63946;51.986;5.930;2023-07-31T13:12:22;5.50;;;4.20;;
75356;SDS011;63946;51.986;5.930;2023-07-31T13:14:54;5.97;;;4.38;;
75356;SDS011;63946;51.986;5.930;2023-07-31T13:17:23;4.63;;;3.95;;
75356;SDS011;63946;51.986;5.930;2023-07-31T13:19:55;5.53;;;4.93;;
75356;SDS011;63946;51.986;5.930;2023-07-31T13:22:24;5.60;;;3.75;;
75356;SDS011;63946;51.986;5.930;2023-07-31T13:24:56;4.50;;;3.60;;
75356;SDS011;63946;51.986;5.930;2023-07-31T13:27:25;4.60;;;3.80;;
75356;SDS011;63946;51.986;5.930;2023-07-31T13:29:56;4.97;;;4.47;;
75356;SDS011;63946;51.986;5.930;2023-07-31T13:32:27;6.22;;;4.45;;
75356;SDS011;63946;51.986;5.930;2023-07-31T13:35:07;6.78;;;4.55;;
75356;SDS011;63946;51.986;5.930;2023-07-31T13:37:41;5.60;;;4.10;;
75356;SDS011;63946;51.986;5.930;2023-07-31T13:40:10;5.30;;;4.18;;
75356;SDS011;63946;51.986;5.930;2023-07-31T13:42:44;5.60;;;3.75;;
75356;SDS011;63946;51.986;5.930;2023-07-31T13:45:16;6.38;;;4.00;;
75356;SDS011;63946;51.986;5.930;2023-07-31T13:47:49;7.43;;;4.47;;
75356;SDS011;63946;51.986;5.930;2023-07-31T13:50:18;4.65;;;3.72;;
75356;SDS011;63946;51.986;5.930;2023-07-31T13:52:50;5.07;;;3.55;;
75356;SDS011;63946;51.986;5.930;2023-07-31T13:55:40;4.55;;;3.60;;
75356;SDS011;63946;51.986;5.930;2023-07-31T13:58:11;6.15;;;3.40;;
75356;SDS011;63946;51.986;5.930;2023-07-31T14:00:40;4.10;;;3.55;;
75356;SDS011;63946;51.986;5.930;2023-07-31T14:03:26;6.97;;;4.43;;
75356;SDS011;63946;51.986;5.930;2023-07-31T14:05:58;4.60;;;3.20;;
75356;SDS011;63946;51.986;5.930;2023-07-31T14:08:27;6.80;;;3.92;;
75356;SDS011;63946;51.986;5.930;2023-07-31T14:10:56;5.50;;;3.55;;
75356;SDS011;63946;51.986;5.930;2023-07-31T14:13:28;4.82;;;3.67;;
75356;SDS011;63946;51.986;5.930;2023-07-31T14:15:57;6.82;;;4.55;;
75356;SDS011;63946;51.986;5.930;2023-07-31T14:18:26;6.78;;;4.28;;
75356;SDS011;63946;51.986;5.930;2023-07-31T14:20:55;7.10;;;4.28;;
75356;SDS011;63946;51.986;5.930;2023-07-31T14:23:26;7.28;;;4.35;;
75356;SDS011;63946;51.986;5.930;2023-07-31T14:25:58;7.55;;;4.78;;
75356;SDS011;63946;51.986;5.930;2023-07-31T14:28:27;5.38;;;3.95;;
75356;SDS011;63946;51.986;5.930;2023-07-31T14:30:56;9.35;;;3.78;;
75356;SDS011;63946;51.986;5.930;2023-07-31T14:33:35;5.80;;;3.58;;
75356;SDS011;63946;51.986;5.930;2023-07-31T14:36:09;6.30;;;3.88;;
75356;SDS011;63946;51.986;5.930;2023-07-31T14:38:45;6.88;;;4.13;;
75356;SDS011;63946;51.986;5.930;2023-07-31T14:41:14;6.85;;;5.00;;
75356;SDS011;63946;51.986;5.930;2023-07-31T14:43:43;7.72;;;4.18;;
75356;SDS011;63946;51.986;5.930;2023-07-31T14:46:15;6.07;;;3.97;;
75356;SDS011;63946;51.986;5.930;2023-07-31T14:48:46;7.47;;;4.22;;
75356;SDS011;63946;51.986;5.930;2023-07-31T14:51:15;7.10;;;4.63;;
75356;SDS011;63946;51.986;5.930;2023-07-31T14:53:52;6.50;;;4.30;;
75356;SDS011;63946;51.986;5.930;2023-07-31T14:56:23;6.65;;;3.60;;
75356;SDS011;63946;51.986;5.930;2023-07-31T14:58:53;5.97;;;3.65;;
75356;SDS011;63946;51.986;5.930;2023-07-31T15:01:22;6.15;;;4.28;;
75356;SDS011;63946;51.986;5.930;2023-07-31T15:03:52;9.02;;;4.63;;
75356;SDS011;63946;51.986;5.930;2023-07-31T15:06:22;6.45;;;3.75;;
75356;SDS011;63946;51.986;5.930;2023-07-31T15:08:51;7.90;;;4.63;;
75356;SDS011;63946;51.986;5.930;2023-07-31T15:11:22;5.63;;;3.72;;
75356;SDS011;63946;51.986;5.930;2023-07-31T15:13:53;7.20;;;4.70;;
75356;SDS011;63946;51.986;5.930;2023-07-31T15:16:24;7.80;;;5.10;;
75356;SDS011;63946;51.986;5.930;2023-07-31T15:18:55;7.03;;;4.53;;
75356;SDS011;63946;51.986;5.930;2023-07-31T15:21:24;9.57;;;4.63;;
75356;SDS011;63946;51.986;5.930;2023-07-31T15:23:53;7.63;;;4.07;;
75356;SDS011;63946;51.986;5.930;2023-07-31T15:26:24;7.05;;;4.13;;
75356;SDS011;63946;51.986;5.930;2023-07-31T15:29:03;7.78;;;3.85;;
75356;SDS011;63946;51.986;5.930;2023-07-31T15:31:35;6.65;;;3.78;;
75356;SDS011;63946;51.986;5.930;2023-07-31T15:34:04;7.38;;;4.05;;
75356;SDS011;63946;51.986;5.930;2023-07-31T15:36:36;6.38;;;3.33;;
75356;SDS011;63946;51.986;5.930;2023-07-31T15:39:05;5.03;;;3.40;;
75356;SDS011;63946;51.986;5.930;2023-07-31T15:41:34;8.13;;;3.28;;
75356;SDS011;63946;51.986;5.930;2023-07-31T15:44:14;4.75;;;3.22;;
75356;SDS011;63946;51.986;5.930;2023-07-31T15:46:47;6.93;;;3.40;;
75356;SDS011;63946;51.986;5.930;2023-07-31T15:49:16;5.70;;;3.25;;
75356;SDS011;63946;51.986;5.930;2023-07-31T15:51:51;6.43;;;3.38;;
75356;SDS011;63946;51.986;5.930;2023-07-31T15:54:20;5.75;;;3.00;;
75356;SDS011;63946;51.986;5.930;2023-07-31T15:56:49;6.75;;;3.15;;
75356;SDS011;63946;51.986;5.930;2023-07-31T15:59:23;5.72;;;2.88;;
75356;SDS011;63946;51.986;5.930;2023-07-31T16:04:26;4.97;;;3.30;;
75356;SDS011;63946;51.986;5.930;2023-07-31T16:06:55;5.13;;;3.13;;
75356;SDS011;63946;51.986;5.930;2023-07-31T16:09:24;3.90;;;2.20;;
75356;SDS011;63946;51.986;5.930;2023-07-31T16:11:53;4.55;;;2.72;;
75356;SDS011;63946;51.986;5.930;2023-07-31T16:14:22;5.45;;;3.03;;
75356;SDS011;63946;51.986;5.930;2023-07-31T16:16:54;3.58;;;1.98;;
75356;SDS011;63946;51.986;5.930;2023-07-31T16:19:25;5.13;;;2.50;;
75356;SDS011;63946;51.986;5.930;2023-07-31T16:21:57;5.22;;;2.67;;
75356;SDS011;63946;51.986;5.930;2023-07-31T16:24:26;4.70;;;2.35;;
75356;SDS011;63946;51.986;5.930;2023-07-31T16:26:59;2.88;;;1.88;;
75356;SDS011;63946;51.986;5.930;2023-07-31T16:29:31;4.25;;;2.20;;
75356;SDS011;63946;51.986;5.930;2023-07-31T16:32:03;3.63;;;1.85;;
75356;SDS011;63946;51.986;5.930;2023-07-31T16:34:38;5.75;;;1.90;;
75356;SDS011;63946;51.986;5.930;2023-07-31T16:37:07;3.53;;;1.85;;
75356;SDS011;63946;51.986;5.930;2023-07-31T16:39:36;2.42;;;1.58;;
75356;SDS011;63946;51.986;5.930;2023-07-31T16:42:12;3.80;;;1.50;;
75356;SDS011;63946;51.986;5.930;2023-07-31T16:44:45;2.65;;;1.40;;
75356;SDS011;63946;51.986;5.930;2023-07-31T16:47:17;3.28;;;1.45;;
75356;SDS011;63946;51.986;5.930;2023-07-31T16:49:45;2.20;;;1.42;;
75356;SDS011;63946;51.986;5.930;2023-07-31T16:52:14;2.90;;;1.38;;
75356;SDS011;63946;51.986;5.930;2023-07-31T16:54:44;3.40;;;1.77;;
75356;SDS011;63946;51.986;5.930;2023-07-31T16:57:14;1.60;;;1.05;;
75356;SDS011;63946;51.986;5.930;2023-07-31T16:59:45;2.38;;;1.40;;
75356;SDS011;63946;51.986;5.930;2023-07-31T17:02:17;2.60;;;0.85;;
75356;SDS011;63946;51.986;5.930;2023-07-31T17:04:46;1.30;;;0.80;;
75356;SDS011;63946;51.986;5.930;2023-07-31T17:07:15;1.55;;;1.00;;
75356;SDS011;63946;51.986;5.930;2023-07-31T17:09:46;1.90;;;0.90;;
75356;SDS011;63946;51.986;5.930;2023-07-31T17:12:17;1.33;;;0.80;;
75356;SDS011;63946;51.986;5.930;2023-07-31T17:14:46;1.38;;;0.90;;
75356;SDS011;63946;51.986;5.930;2023-07-31T17:17:15;2.35;;;0.90;;
75356;SDS011;63946;51.986;5.930;2023-07-31T17:19:48;1.23;;;0.80;;
75356;SDS011;63946;51.986;5.930;2023-07-31T17:22:17;1.95;;;0.90;;
75356;SDS011;63946;51.986;5.930;2023-07-31T17:24:49;2.22;;;0.80;;
75356;SDS011;63946;51.986;5.930;2023-07-31T17:27:18;1.02;;;0.75;;
75356;SDS011;63946;51.986;5.930;2023-07-31T17:29:49;2.03;;;0.80;;
75356;SDS011;63946;51.986;5.930;2023-07-31T17:32:18;1.50;;;0.85;;
75356;SDS011;63946;51.986;5.930;2023-07-31T17:34:47;1.77;;;0.90;;
75356;SDS011;63946;51.986;5.930;2023-07-31T17:37:15;2.42;;;0.80;;
75356;SDS011;63946;51.986;5.930;2023-07-31T17:39:44;1.63;;;0.82;;
75356;SDS011;63946;51.986;5.930;2023-07-31T17:42:13;2.03;;;0.70;;
75356;SDS011;63946;51.986;5.930;2023-07-31T17:44:42;1.98;;;1.00;;
75356;SDS011;63946;51.986;5.930;2023-07-31T17:47:13;1.52;;;0.90;;
75356;SDS011;63946;51.986;5.930;2023-07-31T17:49:42;1.20;;;0.95;;
75356;SDS011;63946;51.986;5.930;2023-07-31T17:52:11;1.50;;;0.80;;
75356;SDS011;63946;51.986;5.930;2023-07-31T17:54:42;2.40;;;0.70;;
75356;SDS011;63946;51.986;5.930;2023-07-31T17:57:14;2.13;;;0.80;;
75356;SDS011;63946;51.986;5.930;2023-07-31T17:59:43;1.30;;;0.70;;
75356;SDS011;63946;51.986;5.930;2023-07-31T18:02:12;0.85;;;0.70;;
75356;SDS011;63946;51.986;5.930;2023-07-31T18:04:41;1.55;;;0.88;;
75356;SDS011;63946;51.986;5.930;2023-07-31T18:07:10;1.38;;;0.85;;
75356;SDS011;63946;51.986;5.930;2023-07-31T18:09:39;2.25;;;0.80;;
75356;SDS011;63946;51.986;5.930;2023-07-31T18:12:09;1.17;;;0.57;;
75356;SDS011;63946;51.986;5.930;2023-07-31T18:14:38;1.50;;;0.60;;
75356;SDS011;63946;51.986;5.930;2023-07-31T18:17:06;2.00;;;0.73;;
75356;SDS011;63946;51.986;5.930;2023-07-31T18:22:08;0.82;;;0.60;;
75356;SDS011;63946;51.986;5.930;2023-07-31T18:24:39;0.90;;;0.55;;
75356;SDS011;63946;51.986;5.930;2023-07-31T18:27:07;2.25;;;1.10;;
75356;SDS011;63946;51.986;5.930;2023-07-31T18:29:39;1.15;;;0.65;;
75356;SDS011;63946;51.986;5.930;2023-07-31T18:32:10;1.00;;;0.70;;
75356;SDS011;63946;51.986;5.930;2023-07-31T18:34:39;1.15;;;0.73;;
75356;SDS011;63946;51.986;5.930;2023-07-31T18:37:10;1.13;;;0.82;;
75356;SDS011;63946;51.986;5.930;2023-07-31T18:39:39;1.45;;;0.57;;
75356;SDS011;63946;51.986;5.930;2023-07-31T18:42:08;0.80;;;0.60;;
75356;SDS011;63946;51.986;5.930;2023-07-31T18:44:39;0.82;;;0.40;;
75356;SDS011;63946;51.986;5.930;2023-07-31T18:47:08;1.00;;;0.90;;
75356;SDS011;63946;51.986;5.930;2023-07-31T18:49:37;0.63;;;0.50;;
75356;SDS011;63946;51.986;5.930;2023-07-31T18:52:06;0.70;;;0.50;;
75356;SDS011;63946;51.986;5.930;2023-07-31T18:54:35;1.00;;;0.70;;
75356;SDS011;63946;51.986;5.930;2023-07-31T18:57:04;0.77;;;0.50;;
75356;SDS011;63946;51.986;5.930;2023-07-31T18:59:39;1.35;;;0.60;;
75356;SDS011;63946;51.986;5.930;2023-07-31T19:02:11;0.80;;;0.60;;
75356;SDS011;63946;51.986;5.930;2023-07-31T19:04:43;0.88;;;0.60;;
75356;SDS011;63946;51.986;5.930;2023-07-31T19:07:12;1.35;;;0.80;;
75356;SDS011;63946;51.986;5.930;2023-07-31T19:09:42;0.82;;;0.40;;
75356;SDS011;63946;51.986;5.930;2023-07-31T19:12:14;2.17;;;0.68;;
75356;SDS011;63946;51.986;5.930;2023-07-31T19:14:43;1.48;;;0.70;;
75356;SDS011;63946;51.986;5.930;2023-07-31T19:17:12;1.83;;;0.60;;
75356;SDS011;63946;51.986;5.930;2023-07-31T19:19:44;1.90;;;0.82;;
75356;SDS011;63946;51.986;5.930;2023-07-31T19:22:13;0.77;;;0.57;;
75356;SDS011;63946;51.986;5.930;2023-07-31T19:24:42;1.70;;;0.82;;
75356;SDS011;63946;51.986;5.930;2023-07-31T19:27:12;0.68;;;0.65;;
75356;SDS011;63946;51.986;5.930;2023-07-31T19:29:52;0.95;;;0.52;;
75356;SDS011;63946;51.986;5.930;2023-07-31T19:32:21;0.85;;;0.70;;
75356;SDS011;63946;51.986;5.930;2023-07-31T19:34:53;1.45;;;0.70;;
75356;SDS011;63946;51.986;5.930;2023-07-31T19:37:22;1.70;;;0.88;;
75356;SDS011;63946;51.986;5.930;2023-07-31T19:39:51;1.55;;;0.65;;
75356;SDS011;63946;51.986;5.930;2023-07-31T19:42:20;1.70;;;0.70;;
75356;SDS011;63946;51.986;5.930;2023-07-31T19:44:49;1.23;;;0.77;;
75356;SDS011;63946;51.986;5.930;2023-07-31T19:47:31;0.85;;;0.70;;
75356;SDS011;63946;51.986;5.930;2023-07-31T19:50:00;1.27;;;0.80;;
75356;SDS011;63946;51.986;5.930;2023-07-31T19:52:29;1.02;;;0.90;;
75356;SDS011;63946;51.986;5.930;2023-07-31T19:54:58;1.42;;;0.80;;
75356;SDS011;63946;51.986;5.930;2023-07-31T19:57:27;1.85;;;0.80;;
75356;SDS011;63946;51.986;5.930;2023-07-31T19:59:57;1.38;;;1.00;;
75356;SDS011;63946;51.986;5.930;2023-07-31T20:02:25;3.05;;;1.23;;
75356;SDS011;63946;51.986;5.930;2023-07-31T20:04:54;1.90;;;1.10;;
75356;SDS011;63946;51.986;5.930;2023-07-31T20:07:23;2.53;;;1.42;;
75356;SDS011;63946;51.986;5.930;2023-07-31T20:09:58;1.50;;;0.95;;
75356;SDS011;63946;51.986;5.930;2023-07-31T20:12:27;1.33;;;1.00;;
75356;SDS011;63946;51.986;5.930;2023-07-31T20:14:59;1.38;;;1.15;;
75356;SDS011;63946;51.986;5.930;2023-07-31T20:17:31;1.48;;;1.35;;
75356;SDS011;63946;51.986;5.930;2023-07-31T20:20:03;2.55;;;1.15;;
75356;SDS011;63946;51.986;5.930;2023-07-31T20:22:32;1.48;;;1.17;;
75356;SDS011;63946;51.986;5.930;2023-07-31T20:25:01;3.13;;;1.50;;
75356;SDS011;63946;51.986;5.930;2023-07-31T20:27:30;2.40;;;1.90;;
75356;SDS011;63946;51.986;5.930;2023-07-31T20:29:59;1.42;;;1.20;;
75356;SDS011;63946;51.986;5.930;2023-07-31T20:32:28;3.33;;;1.50;;
75356;SDS011;63946;51.986;5.930;2023-07-31T20:34:57;2.67;;;1.40;;
75356;SDS011;63946;51.986;5.930;2023-07-31T20:37:26;2.10;;;1.13;;
75356;SDS011;63946;51.986;5.930;2023-07-31T20:39:55;1.80;;;1.10;;
75356;SDS011;63946;51.986;5.930;2023-07-31T20:42:26;1.65;;;1.10;;
75356;SDS011;63946;51.986;5.930;2023-07-31T20:44:55;2.50;;;1.40;;
75356;SDS011;63946;51.986;5.930;2023-07-31T20:47:24;1.95;;;1.30;;
75356;SDS011;63946;51.986;5.930;2023-07-31T20:49:56;2.75;;;1.73;;
75356;SDS011;63946;51.986;5.930;2023-07-31T20:52:25;1.77;;;1.20;;
75356;SDS011;63946;51.986;5.930;2023-07-31T20:54:54;3.38;;;1.35;;
75356;SDS011;63946;51.986;5.930;2023-07-31T20:57:22;1.92;;;1.10;;
75356;SDS011;63946;51.986;5.930;2023-07-31T20:59:51;3.15;;;1.48;;
75356;SDS011;63946;51.986;5.930;2023-07-31T21:02:20;2.08;;;1.20;;
75356;SDS011;63946;51.986;5.930;2023-07-31T21:04:49;3.15;;;1.50;;
75356;SDS011;63946;51.986;5.930;2023-07-31T21:07:18;2.72;;;1.40;;
75356;SDS011;63946;51.986;5.930;2023-07-31T21:09:47;2.25;;;1.42;;
75356;SDS011;63946;51.986;5.930;2023-07-31T21:12:16;3.65;;;1.38;;
75356;SDS011;63946;51.986;5.930;2023-07-31T21:14:45;2.10;;;1.27;;
75356;SDS011;63946;51.986;5.930;2023-07-31T21:17:16;4.38;;;1.70;;
75356;SDS011;63946;51.986;5.930;2023-07-31T21:19:45;3.55;;;1.38;;
75356;SDS011;63946;51.986;5.930;2023-07-31T21:22:14;3.35;;;1.38;;
75356;SDS011;63946;51.986;5.930;2023-07-31T21:24:43;2.65;;;1.45;;
75356;SDS011;63946;51.986;5.930;2023-07-31T21:27:15;2.30;;;1.65;;
75356;SDS011;63946;51.986;5.930;2023-07-31T21:29:46;2.20;;;1.40;;
75356;SDS011;63946;51.986;5.930;2023-07-31T21:32:18;2.85;;;1.52;;
75356;SDS011;63946;51.986;5.930;2023-07-31T21:34:50;2.63;;;1.45;;
75356;SDS011;63946;51.986;5.930;2023-07-31T21:37:20;2.25;;;1.42;;
75356;SDS011;63946;51.986;5.930;2023-07-31T21:39:49;3.10;;;1.52;;
75356;SDS011;63946;51.986;5.930;2023-07-31T21:42:17;1.90;;;1.50;;
75356;SDS011;63946;51.986;5.930;2023-07-31T21:44:46;3.58;;;1.80;;
75356;SDS011;63946;51.986;5.930;2023-07-31T21:47:15;3.33;;;1.92;;
75356;SDS011;63946;51.986;5.930;2023-07-31T21:49:44;2.53;;;1.58;;
75356;SDS011;63946;51.986;5.930;2023-07-31T21:52:13;3.63;;;2.30;;
75356;SDS011;63946;51.986;5.930;2023-07-31T21:54:42;3.33;;;1.88;;
75356;SDS011;63946;51.986;5.930;2023-07-31T21:57:13;3.13;;;1.80;;